createdAt,value
2019-02-06T00:00:55.037Z,27.87
2019-02-06T00:03:24.551Z,23.77
2019-02-06T00:05:53.832Z,26.70
2019-02-06T00:08:23.431Z,21.90
2019-02-06T00:10:52.739Z,24.67
2019-02-06T00:13:22.052Z,26.60
2019-02-06T00:15:51.642Z,27.80
2019-02-06T00:18:20.883Z,26.33
2019-02-06T00:20:50.215Z,24.00
2019-02-06T00:23:19.366Z,27.50
2019-02-06T00:25:48.602Z,21.80
2019-02-06T00:28:17.892Z,22.50
2019-02-06T00:30:47.553Z,28.90
2019-02-06T00:33:16.705Z,29.70
2019-02-06T00:35:45.988Z,29.77
2019-02-06T00:38:15.145Z,29.77
2019-02-06T00:40:44.311Z,27.90
2019-02-06T00:43:13.546Z,29.73
2019-02-06T00:45:43.187Z,27.90
2019-02-06T00:48:12.365Z,29.60
2019-02-06T00:50:41.532Z,27.63
2019-02-06T00:53:10.734Z,28.27
2019-02-06T00:55:39.884Z,28.13
2019-02-06T00:58:09.140Z,29.10
2019-02-06T01:00:39.083Z,27.37
2019-02-06T01:03:08.428Z,29.10
2019-02-06T01:05:38.869Z,27.83
2019-02-06T01:08:08.303Z,23.17
2019-02-06T01:10:37.488Z,27.70
2019-02-06T01:13:07.093Z,27.20
2019-02-06T01:15:36.319Z,22.43
2019-02-06T01:18:05.731Z,21.17
2019-02-06T01:20:34.898Z,22.47
2019-02-06T01:23:04.264Z,24.23
2019-02-06T01:25:33.457Z,25.80
2019-02-06T01:28:02.684Z,27.73
2019-02-06T01:30:39.145Z,28.57
2019-02-06T01:33:08.683Z,22.27
2019-02-06T01:35:49.243Z,29.43
2019-02-06T01:38:08.886Z,27.30
2019-02-06T01:40:38.346Z,27.53
2019-02-06T01:43:07.571Z,26.43
2019-02-06T01:45:37.155Z,22.77
2019-02-06T01:48:06.405Z,26.67
2019-02-06T01:50:35.673Z,26.13
2019-02-06T01:53:04.834Z,27.50
2019-02-06T01:55:34.059Z,28.10
2019-02-06T01:58:03.261Z,27.33
2019-02-06T02:00:32.593Z,24.00
2019-02-06T02:03:01.929Z,26.53
2019-02-06T02:05:31.404Z,25.40
2019-02-06T02:08:00.940Z,22.20
2019-02-06T02:10:30.192Z,22.57
2019-02-06T02:12:59.349Z,26.97
2019-02-06T02:15:28.552Z,25.47
2019-02-06T02:17:57.994Z,20.77
2019-02-06T02:20:27.266Z,21.77
2019-02-06T02:22:56.453Z,25.07
2019-02-06T02:25:25.637Z,25.57
2019-02-06T02:27:54.806Z,25.13
2019-02-06T02:30:32.574Z,26.47
2019-02-06T02:33:01.731Z,26.73
2019-02-06T02:35:30.923Z,25.87
2019-02-06T02:38:00.221Z,26.93
2019-02-06T02:40:29.531Z,22.87
2019-02-06T02:42:58.731Z,25.13
2019-02-06T02:45:28.256Z,27.00
2019-02-06T02:47:57.440Z,27.20
2019-02-06T02:50:26.668Z,27.17
2019-02-06T02:52:55.924Z,25.87
2019-02-06T02:55:25.148Z,28.43
2019-02-06T02:57:54.511Z,25.87
2019-02-06T03:00:30.548Z,28.27
2019-02-06T03:03:24.941Z,22.03
2019-02-06T03:05:54.167Z,25.57
2019-02-06T03:08:23.350Z,21.07
2019-02-06T03:10:52.573Z,26.70
2019-02-06T03:13:21.829Z,25.17
2019-02-06T03:15:51.035Z,24.03
2019-02-06T03:18:20.244Z,22.83
2019-02-06T03:20:49.523Z,24.80
2019-02-06T03:23:18.703Z,25.70
2019-02-06T03:25:48.130Z,23.00
2019-02-06T03:28:17.395Z,22.67
2019-02-06T03:30:46.582Z,23.17
2019-02-06T03:33:15.878Z,21.90
2019-02-06T03:35:45.081Z,22.63
2019-02-06T03:38:14.367Z,18.97
2019-02-06T03:40:43.844Z,22.90
2019-02-06T03:43:13.019Z,22.83
2019-02-06T03:45:42.204Z,21.70
2019-02-06T03:48:11.481Z,21.93
2019-02-06T03:50:40.703Z,22.67
2019-02-06T03:53:10.005Z,23.40
2019-02-06T03:55:40.605Z,23.13
2019-02-06T03:58:09.893Z,23.73
2019-02-06T04:00:39.104Z,22.80
2019-02-06T04:03:08.353Z,19.10
2019-02-06T04:05:37.542Z,23.63
2019-02-06T04:08:06.947Z,21.97
2019-02-06T04:10:36.624Z,23.10
2019-02-06T04:13:05.811Z,22.03
2019-02-06T04:15:35.140Z,22.17
2019-02-06T04:18:04.739Z,21.70
2019-02-06T04:20:33.947Z,22.40
2019-02-06T04:23:03.155Z,17.07
2019-02-06T04:25:32.739Z,23.50
2019-02-06T04:28:01.985Z,21.47
2019-02-06T04:30:31.275Z,21.50
2019-02-06T04:33:00.492Z,23.00
2019-02-06T04:35:29.688Z,22.70
2019-02-06T04:37:58.936Z,19.97
2019-02-06T04:40:28.415Z,22.97
2019-02-06T04:42:57.662Z,22.87
2019-02-06T04:45:26.924Z,19.77
2019-02-06T04:47:56.094Z,22.43
2019-02-06T04:50:25.349Z,21.63
2019-02-06T04:52:54.509Z,19.60
2019-02-06T04:55:23.806Z,19.33
2019-02-06T04:57:52.964Z,20.77
2019-02-06T05:00:23.913Z,22.27
2019-02-06T05:02:53.123Z,20.83
2019-02-06T05:05:22.400Z,21.13
2019-02-06T05:07:51.569Z,21.97
2019-02-06T05:10:20.934Z,18.07
2019-02-06T05:12:50.286Z,19.63
2019-02-06T05:15:20.143Z,20.90
2019-02-06T05:17:49.427Z,21.63
2019-02-06T05:20:39.184Z,22.10
2019-02-06T05:23:09.364Z,22.20
2019-02-06T05:25:38.725Z,19.47
2019-02-06T05:28:08.180Z,22.20
2019-02-06T05:30:37.330Z,22.53
2019-02-06T05:33:06.542Z,21.70
2019-02-06T05:35:35.789Z,21.20
2019-02-06T05:38:06.585Z,20.70
2019-02-06T05:40:35.842Z,20.87
2019-02-06T05:43:05.156Z,19.40
2019-02-06T05:45:34.459Z,19.00
2019-02-06T05:48:03.645Z,21.60
2019-02-06T05:50:32.907Z,20.80
2019-02-06T05:53:02.148Z,20.40
2019-02-06T05:55:31.291Z,20.83
2019-02-06T05:58:00.964Z,16.50
2019-02-06T06:00:34.920Z,18.40
2019-02-06T06:03:04.172Z,19.57
2019-02-06T06:05:33.428Z,20.67
2019-02-06T06:08:02.741Z,16.67
2019-02-06T06:10:32.228Z,18.90
2019-02-06T06:13:01.454Z,21.33
2019-02-06T06:15:30.695Z,21.43
2019-02-06T06:17:59.935Z,22.13
2019-02-06T06:20:29.182Z,20.97
2019-02-06T06:22:58.401Z,20.63
2019-02-06T06:25:28.101Z,21.13
2019-02-06T06:27:57.344Z,21.00
2019-02-06T06:30:26.585Z,20.40
2019-02-06T06:32:55.781Z,21.33
2019-02-06T06:35:24.949Z,20.30
2019-02-06T06:37:58.831Z,19.83
2019-02-06T06:40:25.102Z,19.37
2019-02-06T06:42:54.329Z,19.07
2019-02-06T06:45:23.954Z,20.67
2019-02-06T06:47:53.457Z,20.53
2019-02-06T06:50:24.000Z,20.30
2019-02-06T06:52:53.175Z,20.30
2019-02-06T06:55:23.083Z,20.70
2019-02-06T06:57:52.331Z,19.27
2019-02-06T07:00:23.810Z,20.00
2019-02-06T07:02:53.224Z,20.13
2019-02-06T07:05:22.525Z,21.80
2019-02-06T07:07:53.361Z,20.40
2019-02-06T07:10:22.961Z,18.00
2019-02-06T07:12:52.568Z,22.30
2019-02-06T07:15:27.353Z,18.77
2019-02-06T07:17:56.823Z,20.67
2019-02-06T07:20:26.029Z,21.20
2019-02-06T07:22:55.249Z,20.33
2019-02-06T07:25:24.456Z,18.33
2019-02-06T07:27:53.734Z,20.10
2019-02-06T07:30:25.446Z,19.27
2019-02-06T07:32:54.770Z,21.07
2019-02-06T07:35:23.951Z,20.73
2019-02-06T07:37:53.114Z,19.30
2019-02-06T07:40:22.430Z,18.63
2019-02-06T07:42:51.587Z,21.20
2019-02-06T07:45:21.457Z,19.37
2019-02-06T07:47:50.738Z,21.03
2019-02-06T07:50:22.573Z,19.33
2019-02-06T07:52:51.784Z,18.80
2019-02-06T07:55:21.008Z,20.80
2019-02-06T07:57:50.368Z,19.47
2019-02-06T08:00:19.753Z,20.37
2019-02-06T08:02:49.176Z,17.17
2019-02-06T08:05:19.206Z,20.27
2019-02-06T08:07:48.548Z,19.37
2019-02-06T08:10:20.529Z,18.57
2019-02-06T08:12:49.728Z,19.60
2019-02-06T08:15:19.569Z,18.67
2019-02-06T08:17:49.296Z,19.50
2019-02-06T08:20:19.277Z,19.90
2019-02-06T08:22:48.566Z,18.73
2019-02-06T08:25:18.124Z,20.93
2019-02-06T08:27:47.331Z,20.60
2019-02-06T08:30:22.080Z,20.10
2019-02-06T08:32:51.365Z,20.00
2019-02-06T08:35:20.531Z,18.53
2019-02-06T08:37:50.164Z,19.97
2019-02-06T08:40:19.974Z,19.50
2019-02-06T08:42:49.182Z,20.37
2019-02-06T08:45:18.614Z,19.93
2019-02-06T08:47:47.928Z,20.17
2019-02-06T08:50:17.669Z,19.17
2019-02-06T08:52:47.257Z,18.63
2019-02-06T08:55:19.369Z,20.13
2019-02-06T08:57:48.664Z,20.60
2019-02-06T09:00:21.401Z,19.03
2019-02-06T09:03:05.564Z,18.13
2019-02-06T09:05:34.899Z,18.00
2019-02-06T09:08:04.736Z,21.47
2019-02-06T09:10:34.032Z,20.93
2019-02-06T09:13:03.238Z,19.80
2019-02-06T09:15:32.542Z,20.97
2019-02-06T09:18:01.739Z,19.83
2019-02-06T09:20:31.722Z,20.70
2019-02-06T09:23:01.006Z,21.23
2019-02-06T09:25:30.358Z,19.90
2019-02-06T09:27:59.567Z,18.60
2019-02-06T09:30:30.482Z,20.37
2019-02-06T09:33:00.174Z,18.00
2019-02-06T09:35:29.544Z,19.97
2019-02-06T09:37:59.189Z,20.50
2019-02-06T09:40:29.562Z,19.47
2019-02-06T09:42:58.918Z,19.87
2019-02-06T09:45:28.543Z,20.20
2019-02-06T09:47:57.932Z,18.43
2019-02-06T09:50:29.607Z,19.03
2019-02-06T09:52:58.798Z,20.20
2019-02-06T09:55:28.200Z,17.30
2019-02-06T09:57:57.783Z,19.50
2019-02-06T10:00:32.061Z,19.73
2019-02-06T10:03:01.645Z,17.47
2019-02-06T10:05:31.361Z,18.70
2019-02-06T10:08:00.608Z,19.37
2019-02-06T10:10:30.151Z,18.67
2019-02-06T10:12:59.504Z,17.60
2019-02-06T10:15:31.143Z,18.47
2019-02-06T10:18:01.419Z,18.37
2019-02-06T10:20:36.715Z,15.70
2019-02-06T10:23:06.622Z,17.83
2019-02-06T10:25:36.139Z,17.03
2019-02-06T10:28:05.438Z,18.60
2019-02-06T10:30:40.050Z,17.83
2019-02-06T10:33:09.393Z,15.43
2019-02-06T10:35:38.636Z,17.67
2019-02-06T10:38:08.228Z,16.77
2019-02-06T10:40:37.484Z,17.10
2019-02-06T10:43:06.829Z,16.90
2019-02-06T10:45:36.483Z,16.73
2019-02-06T10:48:06.622Z,16.53
2019-02-06T10:50:38.740Z,15.30
2019-02-06T10:53:08.112Z,17.93
2019-02-06T10:55:37.594Z,17.70
2019-02-06T10:58:06.827Z,14.53
2019-02-06T11:00:39.481Z,15.63
2019-02-06T11:03:08.742Z,16.47
2019-02-06T11:05:37.920Z,16.17
2019-02-06T11:08:07.381Z,15.90
2019-02-06T11:10:36.660Z,15.10
2019-02-06T11:13:06.398Z,18.40
2019-02-06T11:15:36.048Z,16.30
2019-02-06T11:18:07.036Z,14.60
2019-02-06T11:20:36.632Z,15.70
2019-02-06T11:23:07.001Z,18.20
2019-02-06T11:25:36.695Z,15.07
2019-02-06T11:28:06.909Z,16.23
2019-02-06T11:30:36.334Z,15.43
2019-02-06T11:33:05.853Z,15.30
2019-02-06T11:35:35.005Z,17.00
2019-02-06T11:38:04.549Z,14.47
2019-02-06T11:40:33.915Z,13.93
2019-02-06T11:43:03.159Z,16.27
2019-02-06T11:45:32.989Z,14.60
2019-02-06T11:48:02.579Z,16.83
2019-02-06T11:50:37.933Z,16.10
2019-02-06T11:53:08.820Z,15.23
2019-02-06T11:55:38.009Z,14.77
2019-02-06T11:58:07.616Z,15.47
2019-02-06T12:00:44.775Z,15.70
2019-02-06T12:03:14.026Z,14.80
2019-02-06T12:05:43.285Z,12.90
2019-02-06T12:08:12.864Z,15.83
2019-02-06T12:10:42.114Z,14.83
2019-02-06T12:13:11.344Z,14.40
2019-02-06T12:15:40.575Z,14.57
2019-02-06T12:18:09.785Z,13.43
2019-02-06T12:20:39.036Z,14.77
2019-02-06T12:23:08.285Z,13.93
2019-02-06T12:25:37.505Z,14.90
2019-02-06T12:28:07.156Z,13.30
2019-02-06T12:30:36.888Z,13.00
2019-02-06T12:33:06.441Z,13.50
2019-02-06T12:35:35.757Z,12.83
2019-02-06T12:38:05.336Z,12.60
2019-02-06T12:40:34.937Z,13.23
2019-02-06T12:43:05.767Z,13.23
2019-02-06T12:45:35.630Z,13.10
2019-02-06T12:48:05.338Z,13.50
2019-02-06T12:50:34.574Z,13.40
2019-02-06T12:53:03.872Z,12.73
2019-02-06T12:55:34.378Z,13.53
2019-02-06T12:58:04.113Z,11.70
2019-02-06T13:00:34.331Z,12.27
2019-02-06T13:03:03.789Z,11.63
2019-02-06T13:05:33.295Z,11.87
2019-02-06T13:08:02.632Z,11.67
2019-02-06T13:10:34.221Z,10.23
2019-02-06T13:13:03.605Z,11.27
2019-02-06T13:15:33.366Z,9.73
2019-02-06T13:18:02.898Z,10.33
2019-02-06T13:20:36.090Z,10.10
2019-02-06T13:23:05.760Z,9.27
2019-02-06T13:25:35.381Z,9.10
2019-02-06T13:28:11.773Z,7.10
2019-02-06T13:30:41.007Z,7.60
2019-02-06T13:33:11.667Z,8.00
2019-02-06T13:35:41.357Z,7.90
2019-02-06T13:38:10.541Z,7.47
2019-02-06T13:40:45.844Z,6.97
2019-02-06T13:43:10.792Z,8.57
2019-02-06T13:45:42.901Z,8.23
2019-02-06T13:48:12.386Z,8.97
2019-02-06T13:50:41.684Z,10.47
2019-02-06T13:53:10.937Z,10.47
2019-02-06T13:55:40.233Z,8.57
2019-02-06T13:58:19.747Z,8.97
2019-02-06T14:00:41.083Z,8.57
2019-02-06T14:03:10.472Z,11.77
2019-02-06T14:05:40.689Z,9.83
2019-02-06T14:08:15.225Z,10.70
2019-02-06T14:10:57.078Z,9.00
2019-02-06T14:13:16.006Z,8.40
2019-02-06T14:15:47.259Z,7.17
2019-02-06T14:18:16.571Z,9.83
2019-02-06T14:20:47.945Z,10.43
2019-02-06T14:23:20.793Z,11.03
2019-02-06T14:26:32.899Z,9.93
2019-02-06T14:29:38.360Z,10.40
2019-02-06T14:32:42.504Z,10.30
2019-02-06T14:35:49.783Z,10.67
2019-02-06T14:38:54.967Z,10.80
2019-02-06T14:42:14.912Z,12.30
2019-02-06T14:45:30.033Z,11.43
2019-02-06T14:48:18.103Z,10.83
2019-02-06T14:50:57.548Z,11.77
2019-02-06T14:53:39.094Z,13.10
2019-02-06T14:56:45.011Z,12.73
2019-02-06T14:59:50.131Z,13.33
2019-02-06T15:02:53.075Z,12.47
2019-02-06T15:06:07.574Z,12.27
2019-02-06T15:08:57.360Z,9.93
2019-02-06T15:12:10.408Z,9.60
2019-02-06T15:15:11.332Z,10.30
2019-02-06T15:18:08.361Z,10.23
2019-02-06T15:21:30.798Z,10.30
2019-02-06T15:25:02.050Z,9.00
2019-02-06T15:28:14.659Z,10.40
2019-02-06T15:31:18.276Z,11.87
2019-02-06T15:34:40.930Z,11.93
2019-02-06T15:37:33.825Z,10.00
2019-02-06T15:41:08.495Z,11.60
2019-02-06T15:43:56.284Z,11.90
2019-02-06T15:47:11.352Z,11.00
2019-02-06T15:50:26.470Z,8.93
2019-02-06T15:53:07.711Z,8.80
2019-02-06T15:56:33.017Z,10.93
2019-02-06T16:00:01.732Z,11.17
2019-02-06T16:03:06.714Z,12.33
2019-02-06T16:06:43.966Z,11.27
2019-02-06T16:09:42.034Z,11.23
2019-02-06T16:12:57.504Z,11.20
2019-02-06T16:15:51.866Z,12.17
2019-02-06T16:19:12.658Z,11.97
2019-02-06T16:22:09.291Z,14.27
2019-02-06T16:24:55.487Z,11.53
2019-02-06T16:28:05.778Z,14.37
2019-02-06T16:30:59.137Z,15.30
2019-02-06T16:34:10.162Z,13.80
2019-02-06T16:37:26.954Z,15.03
2019-02-06T16:40:33.417Z,11.90
2019-02-06T16:43:24.858Z,9.93
2019-02-06T16:46:43.761Z,14.97
2019-02-06T16:49:27.740Z,11.53
2019-02-06T16:52:11.119Z,15.03
2019-02-06T16:55:01.018Z,16.33
2019-02-06T16:57:53.953Z,15.90
2019-02-06T17:01:00.775Z,12.53
2019-02-06T17:03:59.156Z,15.43
2019-02-06T17:06:50.700Z,13.40
2019-02-06T17:10:10.324Z,13.53
2019-02-06T17:13:00.840Z,9.53
2019-02-06T17:16:15.943Z,14.80
2019-02-06T17:19:21.910Z,9.80
2019-02-06T17:22:28.920Z,12.50
2019-02-06T17:25:19.298Z,11.23
2019-02-06T17:28:11.818Z,15.53
2019-02-06T17:31:27.040Z,15.40
2019-02-06T17:34:20.681Z,17.40
2019-02-06T17:37:11.640Z,13.00
2019-02-06T17:40:22.222Z,12.13
2019-02-06T17:43:22.377Z,16.77
2019-02-06T17:46:22.432Z,15.23
2019-02-06T17:49:16.155Z,11.97
2019-02-06T17:52:26.069Z,15.50
2019-02-06T17:55:20.425Z,15.63
2019-02-06T17:57:51.385Z,12.30
2019-02-06T18:00:31.069Z,11.40
2019-02-06T18:03:02.505Z,9.50
2019-02-06T18:05:31.693Z,11.60
2019-02-06T18:08:01.352Z,14.33
2019-02-06T18:10:30.522Z,13.33
2019-02-06T18:12:59.928Z,19.30
2019-02-06T18:15:29.306Z,16.57
2019-02-06T18:18:01.482Z,19.27
2019-02-06T18:20:30.896Z,15.73
2019-02-06T18:23:00.576Z,14.53
2019-02-06T18:25:30.100Z,18.80
2019-02-06T18:27:59.543Z,15.37
2019-02-06T18:30:31.292Z,17.90
2019-02-06T18:33:01.256Z,19.20
2019-02-06T18:35:30.901Z,16.87
2019-02-06T18:38:00.636Z,18.00
2019-02-06T18:40:30.260Z,20.30
2019-02-06T18:43:00.146Z,16.97
2019-02-06T18:45:29.669Z,14.03
2019-02-06T18:48:01.269Z,19.77
2019-02-06T18:50:31.176Z,19.77
2019-02-06T18:53:00.924Z,14.77
2019-02-06T18:55:30.306Z,19.97
2019-02-06T18:57:59.893Z,18.00
2019-02-06T19:00:32.397Z,20.10
2019-02-06T19:03:03.141Z,21.93
2019-02-06T19:05:34.944Z,20.80
2019-02-06T19:08:04.632Z,20.27
2019-02-06T19:10:34.291Z,25.00
2019-02-06T19:13:03.925Z,16.13
2019-02-06T19:15:33.681Z,19.67
2019-02-06T19:18:03.050Z,21.13
2019-02-06T19:20:32.448Z,20.50
2019-02-06T19:23:01.884Z,20.53
2019-02-06T19:25:31.670Z,20.13
2019-02-06T19:28:01.427Z,21.60
2019-02-06T19:30:33.257Z,22.03
2019-02-06T19:33:02.678Z,22.67
2019-02-06T19:35:32.210Z,18.20
2019-02-06T19:38:01.486Z,22.03
2019-02-06T19:40:30.887Z,18.97
2019-02-06T19:43:02.546Z,20.43
2019-02-06T19:45:31.276Z,22.57
2019-02-06T19:48:00.849Z,16.10
2019-02-06T19:50:32.638Z,21.97
2019-02-06T19:53:02.037Z,18.23
2019-02-06T19:55:31.449Z,24.00
2019-02-06T19:58:00.710Z,22.10
2019-02-06T20:00:31.057Z,20.03
2019-02-06T20:03:00.463Z,23.20
2019-02-06T20:05:30.054Z,19.67
2019-02-06T20:07:59.328Z,17.47
2019-02-06T20:10:31.234Z,18.83
2019-02-06T20:13:10.610Z,19.33
2019-02-06T20:15:31.691Z,22.10
2019-02-06T20:18:01.021Z,22.67
2019-02-06T20:20:30.705Z,20.37
2019-02-06T20:23:00.491Z,21.17
2019-02-06T20:25:29.952Z,20.93
2019-02-06T20:27:59.467Z,20.57
2019-02-06T20:30:29.228Z,19.60
2019-02-06T20:32:58.671Z,21.20
2019-02-06T20:35:28.398Z,21.07
2019-02-06T20:37:58.258Z,22.97
2019-02-06T20:40:32.141Z,21.87
2019-02-06T20:43:01.575Z,20.33
2019-02-06T20:45:31.480Z,22.00
2019-02-06T20:48:00.933Z,20.07
2019-02-06T20:50:31.633Z,22.73
2019-02-06T20:53:01.241Z,21.70
2019-02-06T20:55:30.580Z,16.67
2019-02-06T20:57:59.972Z,20.10
2019-02-06T21:00:31.643Z,15.80
2019-02-06T21:03:00.941Z,19.27
2019-02-06T21:05:30.727Z,14.87
2019-02-06T21:08:01.016Z,22.70
2019-02-06T21:10:31.073Z,20.43
2019-02-06T21:13:00.392Z,21.93
2019-02-06T21:15:29.569Z,19.73
2019-02-06T21:17:58.948Z,23.13
2019-02-06T21:20:28.287Z,23.53
2019-02-06T21:22:58.155Z,22.43
2019-02-06T21:25:27.514Z,22.57
2019-02-06T21:27:56.847Z,17.13
2019-02-06T21:30:28.660Z,17.13
2019-02-06T21:32:57.941Z,18.80
2019-02-06T21:35:27.261Z,22.97
2019-02-06T21:37:56.944Z,22.47
2019-02-06T21:40:28.103Z,21.30
2019-02-06T21:42:57.351Z,25.07
2019-02-06T21:45:26.675Z,23.03
2019-02-06T21:47:56.142Z,24.60
2019-02-06T21:50:25.488Z,23.80
2019-02-06T21:52:54.974Z,23.57
2019-02-06T21:55:24.361Z,20.70
2019-02-06T21:57:54.024Z,18.90
2019-02-06T22:00:28.382Z,23.60
2019-02-06T22:02:57.651Z,22.20
2019-02-06T22:05:26.929Z,21.87
2019-02-06T22:07:56.276Z,22.33
2019-02-06T22:10:25.520Z,24.33
2019-02-06T22:12:54.818Z,21.80
2019-02-06T22:15:25.664Z,23.37
2019-02-06T22:17:55.293Z,22.87
2019-02-06T22:20:25.097Z,22.17
2019-02-06T22:22:54.411Z,20.50
2019-02-06T22:25:23.994Z,24.70
2019-02-06T22:27:53.425Z,16.90
2019-02-06T22:30:27.634Z,19.47
2019-02-06T22:32:58.402Z,22.37
2019-02-06T22:35:28.142Z,23.90
2019-02-06T22:37:57.406Z,22.27
2019-02-06T22:40:26.784Z,21.43
2019-02-06T22:42:56.182Z,20.87
2019-02-06T22:45:37.648Z,17.73
2019-02-06T22:48:07.274Z,17.13
2019-02-06T22:50:37.587Z,18.20
2019-02-06T22:53:06.823Z,14.63
2019-02-06T22:55:36.250Z,14.57
2019-02-06T22:58:05.591Z,15.53
2019-02-06T23:01:09.220Z,18.40
2019-02-06T23:03:43.869Z,18.33
2019-02-06T23:06:13.613Z,19.60
2019-02-06T23:08:43.173Z,17.77
2019-02-06T23:11:12.668Z,17.00
2019-02-06T23:13:42.089Z,19.43
2019-02-06T23:16:11.496Z,17.83
2019-02-06T23:18:40.906Z,15.93
2019-02-06T23:21:10.472Z,18.80
2019-02-06T23:23:40.088Z,18.80
2019-02-06T23:26:10.594Z,20.23
2019-02-06T23:28:40.143Z,20.40
2019-02-06T23:31:09.491Z,18.23
2019-02-06T23:33:38.768Z,19.63
2019-02-06T23:36:08.048Z,18.30
2019-02-06T23:38:37.398Z,19.77
2019-02-06T23:41:06.687Z,18.77
2019-02-06T23:43:35.960Z,17.13
2019-02-06T23:46:05.732Z,18.93
2019-02-06T23:48:35.145Z,18.53
2019-02-06T23:51:04.682Z,18.23
2019-02-06T23:53:33.977Z,16.43
2019-02-06T23:56:03.591Z,17.23
2019-02-06T23:58:33.009Z,17.93
